Metar z połowy godziny Komunikat METAR ze strony awiacja.imgw.pl Metar G30 EPMB METAR EPMB 240530Z 17016KT 3000 BR SCT011 OVC050 M00/M02 Q1017 RMK M005 090 8/4=